createdAt,value
2023-01-31T00:00:31.965Z,90.24
2023-01-31T00:05:09.985Z,90.28
2023-01-31T00:09:27.577Z,90.14
2023-01-31T00:13:45.833Z,90.10
2023-01-31T00:18:03.564Z,90.10
2023-01-31T00:22:21.033Z,89.85
2023-01-31T00:26:38.788Z,90.31
2023-01-31T00:30:58.763Z,90.88
2023-01-31T00:35:16.478Z,91.18
2023-01-31T00:39:33.930Z,91.33
2023-01-31T00:43:52.071Z,91.32
2023-01-31T00:48:09.629Z,91.22
2023-01-31T00:52:28.167Z,91.12
2023-01-31T00:56:46.479Z,91.19
2023-01-31T01:01:24.455Z,91.20
2023-01-31T01:05:42.238Z,91.13
2023-01-31T01:09:59.796Z,91.16
2023-01-31T01:14:17.272Z,91.12
2023-01-31T01:18:36.311Z,91.08
2023-01-31T01:22:53.986Z,90.91
2023-01-31T01:27:13.537Z,90.99
2023-01-31T01:31:32.510Z,90.84
2023-01-31T01:35:50.248Z,90.82
2023-01-31T01:40:09.254Z,90.73
2023-01-31T01:44:52.482Z,90.77
2023-01-31T01:49:23.235Z,90.73
2023-01-31T01:53:43.735Z,90.46
2023-01-31T01:58:11.824Z,90.29
2023-01-31T02:02:30.050Z,90.11
2023-01-31T02:06:48.069Z,89.96
2023-01-31T02:11:31.486Z,89.95
2023-01-31T02:15:49.315Z,89.82
2023-01-31T02:20:52.527Z,89.85
2023-01-31T02:25:43.308Z,89.57
2023-01-31T02:30:57.001Z,89.44
2023-01-31T02:35:30.349Z,89.24
2023-01-31T02:39:54.549Z,89.14
2023-01-31T02:44:51.855Z,88.69
2023-01-31T02:49:42.264Z,87.97
2023-01-31T02:54:21.346Z,86.93
2023-01-31T02:58:42.015Z,86.74
2023-01-31T03:02:59.428Z,84.29
2023-01-31T03:07:27.117Z,84.29
2023-01-31T03:12:21.678Z,84.40
2023-01-31T03:17:25.708Z,85.59
2023-01-31T03:21:49.478Z,86.64
2023-01-31T03:26:08.447Z,87.20
2023-01-31T03:30:48.580Z,87.51
2023-01-31T03:35:08.312Z,87.69
2023-01-31T03:40:00.454Z,87.47
2023-01-31T03:44:58.513Z,87.51
2023-01-31T03:49:17.884Z,86.97
2023-01-31T03:53:46.817Z,87.12
2023-01-31T03:58:07.136Z,87.19
2023-01-31T04:02:32.508Z,87.78
2023-01-31T04:06:50.383Z,87.85
2023-01-31T04:11:13.380Z,88.16
2023-01-31T04:15:31.069Z,88.32
2023-01-31T04:19:48.583Z,88.43
2023-01-31T04:24:06.326Z,88.34
2023-01-31T04:28:23.964Z,88.39
2023-01-31T04:32:41.478Z,88.00
2023-01-31T04:36:59.053Z,88.01
2023-01-31T04:41:16.591Z,87.56
2023-01-31T04:45:34.447Z,87.50
2023-01-31T04:49:51.921Z,87.64
2023-01-31T04:54:09.579Z,87.29
2023-01-31T04:58:27.318Z,87.20
2023-01-31T05:02:45.338Z,87.03
2023-01-31T05:07:02.961Z,86.63
2023-01-31T05:11:21.200Z,86.35
2023-01-31T05:15:40.697Z,86.00
2023-01-31T05:19:58.191Z,85.98
2023-01-31T05:24:15.781Z,86.37
2023-01-31T05:28:33.361Z,86.24
2023-01-31T05:32:51.523Z,86.20
2023-01-31T05:37:09.793Z,86.04
2023-01-31T05:41:27.289Z,85.64
2023-01-31T05:45:45.692Z,85.49
2023-01-31T05:50:04.093Z,85.64
2023-01-31T05:54:21.708Z,85.25
2023-01-31T05:58:39.333Z,85.11
2023-01-31T06:03:00.307Z,85.27
2023-01-31T06:07:18.332Z,85.69
2023-01-31T06:11:35.951Z,85.68
2023-01-31T06:15:53.566Z,85.83
2023-01-31T06:20:11.640Z,85.56
2023-01-31T06:24:29.221Z,85.89
2023-01-31T06:28:46.696Z,85.98
2023-01-31T06:33:04.469Z,85.63
2023-01-31T06:37:21.962Z,85.83
2023-01-31T06:41:39.988Z,85.60
2023-01-31T06:45:57.572Z,85.85
2023-01-31T06:50:15.635Z,85.44
2023-01-31T06:54:33.092Z,85.17
2023-01-31T06:58:51.296Z,84.99
2023-01-31T07:03:08.808Z,84.51
2023-01-31T07:07:26.379Z,84.64
2023-01-31T07:11:44.514Z,84.00
2023-01-31T07:16:02.237Z,83.87
2023-01-31T07:20:20.011Z,83.86
2023-01-31T07:24:37.480Z,83.25
2023-01-31T07:28:55.440Z,82.77
2023-01-31T07:33:12.883Z,82.43
2023-01-31T07:37:31.218Z,82.36
2023-01-31T07:41:49.500Z,82.25
2023-01-31T07:46:11.273Z,82.09
2023-01-31T07:50:28.893Z,82.07
2023-01-31T07:54:46.863Z,82.00
2023-01-31T07:59:04.837Z,81.08
2023-01-31T08:03:35.542Z,81.17
2023-01-31T08:08:10.551Z,81.27
2023-01-31T08:12:28.324Z,81.26
2023-01-31T08:16:45.855Z,81.01
2023-01-31T08:21:03.987Z,80.86
2023-01-31T08:25:22.460Z,81.15
2023-01-31T08:29:40.142Z,80.56
2023-01-31T08:33:58.143Z,80.26
2023-01-31T08:38:16.837Z,80.08
2023-01-31T08:42:34.515Z,79.55
2023-01-31T08:46:51.995Z,79.22
2023-01-31T08:51:14.385Z,78.96
2023-01-31T08:55:35.817Z,78.61
2023-01-31T08:59:53.492Z,78.87
2023-01-31T09:04:11.069Z,79.37
2023-01-31T09:08:30.302Z,80.44
2023-01-31T09:12:48.190Z,80.50
2023-01-31T09:17:08.171Z,80.44
2023-01-31T09:21:26.337Z,80.84
2023-01-31T09:25:47.593Z,81.96
2023-01-31T09:30:08.176Z,81.54
2023-01-31T09:34:25.944Z,81.51
2023-01-31T09:38:43.805Z,79.73
2023-01-31T09:43:04.462Z,79.71
2023-01-31T09:47:29.994Z,78.65
2023-01-31T09:51:55.226Z,78.53
2023-01-31T09:56:50.761Z,77.81
2023-01-31T10:01:32.241Z,76.74
2023-01-31T10:05:57.019Z,76.66
2023-01-31T10:10:37.082Z,75.95
2023-01-31T10:15:01.596Z,75.88
2023-01-31T10:19:26.544Z,74.54
2023-01-31T10:23:48.869Z,74.43
2023-01-31T10:28:13.099Z,73.63
2023-01-31T10:32:45.297Z,74.06
2023-01-31T10:37:16.401Z,73.94
2023-01-31T10:42:12.802Z,73.01
2023-01-31T10:46:30.781Z,72.57
2023-01-31T10:51:26.825Z,72.63
2023-01-31T10:56:03.800Z,72.65
2023-01-31T11:00:27.995Z,74.10
2023-01-31T11:04:46.307Z,74.19
2023-01-31T11:09:03.991Z,73.86
2023-01-31T11:13:22.777Z,74.96
2023-01-31T11:17:43.279Z,74.03
2023-01-31T11:22:02.186Z,74.26
2023-01-31T11:26:31.806Z,74.89
2023-01-31T11:30:53.046Z,74.47
2023-01-31T11:35:13.440Z,75.46
2023-01-31T11:39:38.384Z,75.67
2023-01-31T11:44:17.043Z,74.86
2023-01-31T11:48:44.718Z,75.21
2023-01-31T11:53:13.785Z,75.90
2023-01-31T11:57:35.867Z,75.61
2023-01-31T12:01:57.476Z,75.97
2023-01-31T12:06:57.471Z,75.74
2023-01-31T12:11:27.507Z,74.60
2023-01-31T12:16:02.122Z,74.58
2023-01-31T12:20:43.159Z,72.06
2023-01-31T12:25:42.327Z,71.29
2023-01-31T12:30:29.524Z,70.48
2023-01-31T12:35:13.587Z,70.41
2023-01-31T12:39:51.926Z,70.12
2023-01-31T12:44:36.682Z,70.97
2023-01-31T12:49:21.778Z,70.33
2023-01-31T12:54:09.087Z,71.78
2023-01-31T12:58:49.773Z,72.04
2023-01-31T13:03:26.306Z,70.12
2023-01-31T13:07:50.223Z,70.41
2023-01-31T13:12:27.511Z,71.28
2023-01-31T13:16:49.034Z,69.50
2023-01-31T13:21:09.816Z,63.46
2023-01-31T13:26:08.364Z,57.41
2023-01-31T13:30:44.852Z,54.42
2023-01-31T13:35:37.375Z,57.39
2023-01-31T13:40:10.269Z,62.43
2023-01-31T13:44:27.791Z,63.24
2023-01-31T13:48:59.262Z,65.68
2023-01-31T13:53:24.276Z,66.83
2023-01-31T13:57:47.518Z,67.83
2023-01-31T14:02:17.411Z,68.79
2023-01-31T14:06:53.521Z,70.86
2023-01-31T14:11:14.277Z,71.40
2023-01-31T14:15:49.768Z,71.06
2023-01-31T14:20:28.078Z,71.35
2023-01-31T14:24:53.521Z,71.81
2023-01-31T14:29:19.803Z,72.96
2023-01-31T14:33:37.347Z,73.87
2023-01-31T14:38:10.131Z,74.45
2023-01-31T14:43:08.824Z,75.19
2023-01-31T14:47:48.376Z,75.90
2023-01-31T14:52:14.893Z,76.63
2023-01-31T14:56:55.650Z,77.22
2023-01-31T15:01:19.155Z,78.23
2023-01-31T15:05:36.726Z,79.95
2023-01-31T15:09:55.645Z,80.48
2023-01-31T15:14:38.063Z,81.03
2023-01-31T15:19:21.705Z,81.80
2023-01-31T15:23:43.381Z,82.52
2023-01-31T15:28:02.789Z,82.84
2023-01-31T15:32:28.323Z,83.55
2023-01-31T15:37:18.499Z,85.03
2023-01-31T15:41:44.673Z,86.31
2023-01-31T15:46:30.716Z,87.46
2023-01-31T15:50:55.197Z,88.16
2023-01-31T15:55:17.988Z,88.76
2023-01-31T15:59:35.677Z,89.23
2023-01-31T16:03:57.132Z,89.55
2023-01-31T16:08:33.013Z,89.81
2023-01-31T16:12:53.330Z,90.02
2023-01-31T16:17:12.151Z,90.23
2023-01-31T16:21:43.186Z,90.43
2023-01-31T16:26:11.571Z,90.53
2023-01-31T16:30:30.712Z,90.48
2023-01-31T16:35:00.396Z,90.51
2023-01-31T16:39:35.762Z,90.49
2023-01-31T16:43:53.474Z,90.36
2023-01-31T16:48:38.515Z,90.23
2023-01-31T16:53:20.346Z,90.19
2023-01-31T16:57:38.742Z,90.08
2023-01-31T17:02:05.570Z,90.04
2023-01-31T17:06:23.433Z,90.06
2023-01-31T17:10:41.301Z,90.05
2023-01-31T17:15:02.849Z,90.16
2023-01-31T17:19:21.107Z,90.27
2023-01-31T17:23:40.407Z,90.52
2023-01-31T17:27:58.466Z,90.72
2023-01-31T17:32:19.447Z,90.85
2023-01-31T17:36:37.115Z,90.99
2023-01-31T17:40:54.853Z,91.15
2023-01-31T17:45:19.587Z,91.22
2023-01-31T17:49:37.726Z,91.35
2023-01-31T17:53:55.210Z,91.43
2023-01-31T17:58:14.478Z,91.55
2023-01-31T18:02:32.309Z,91.57
2023-01-31T18:06:51.483Z,91.58
2023-01-31T18:11:15.149Z,91.63
2023-01-31T18:15:33.073Z,91.70
2023-01-31T18:19:50.625Z,91.73
2023-01-31T18:24:10.929Z,91.85
2023-01-31T18:28:28.425Z,91.96
2023-01-31T18:32:46.124Z,92.04
2023-01-31T18:37:10.660Z,92.11
2023-01-31T18:41:28.387Z,92.17
2023-01-31T18:45:46.462Z,92.21
2023-01-31T18:50:04.825Z,92.16
2023-01-31T18:54:22.445Z,92.21
2023-01-31T18:58:41.637Z,92.19
2023-01-31T19:02:59.205Z,92.20
2023-01-31T19:07:17.138Z,92.15
2023-01-31T19:11:35.112Z,92.11
2023-01-31T19:15:52.899Z,92.07
2023-01-31T19:20:11.741Z,92.04
2023-01-31T19:24:29.449Z,92.03
2023-01-31T19:28:48.037Z,92.02
2023-01-31T19:33:07.906Z,92.01
2023-01-31T19:37:25.440Z,91.97
2023-01-31T19:41:43.268Z,91.99
2023-01-31T19:46:01.718Z,91.97
2023-01-31T19:50:22.357Z,91.94
2023-01-31T19:54:41.624Z,92.03
2023-01-31T19:59:00.349Z,92.15
2023-01-31T20:03:18.043Z,92.22
2023-01-31T20:07:37.578Z,92.25
2023-01-31T20:11:55.582Z,92.25
2023-01-31T20:16:14.116Z,92.26
2023-01-31T20:20:31.849Z,92.22
2023-01-31T20:24:49.756Z,92.24
2023-01-31T20:29:09.343Z,92.25
2023-01-31T20:33:27.161Z,92.27
2023-01-31T20:37:44.703Z,92.29
2023-01-31T20:42:02.440Z,92.32
2023-01-31T20:46:20.037Z,92.35
2023-01-31T20:50:37.922Z,92.36
2023-01-31T20:54:55.408Z,92.43
2023-01-31T20:59:13.103Z,92.42
2023-01-31T21:03:30.685Z,92.37
2023-01-31T21:07:48.272Z,92.41
2023-01-31T21:12:06.232Z,92.46
2023-01-31T21:16:24.251Z,92.49
2023-01-31T21:20:42.073Z,92.59
2023-01-31T21:24:59.521Z,92.59
2023-01-31T21:29:17.062Z,92.59
2023-01-31T21:33:35.872Z,92.58
2023-01-31T21:37:53.970Z,92.65
2023-01-31T21:42:19.623Z,92.68
2023-01-31T21:46:37.079Z,92.70
2023-01-31T21:50:55.944Z,92.59
2023-01-31T21:55:13.452Z,92.54
2023-01-31T21:59:32.462Z,92.49
2023-01-31T22:03:52.354Z,92.46
2023-01-31T22:08:09.881Z,92.42
2023-01-31T22:12:27.491Z,92.34
2023-01-31T22:16:44.992Z,92.36
2023-01-31T22:21:17.253Z,92.42
2023-01-31T22:25:37.626Z,92.53
2023-01-31T22:30:00.766Z,92.62
2023-01-31T22:34:21.231Z,92.65
2023-01-31T22:38:39.473Z,92.68
2023-01-31T22:42:57.101Z,92.72
2023-01-31T22:47:14.677Z,92.76
2023-01-31T22:51:32.175Z,92.74
2023-01-31T22:55:49.637Z,92.73
2023-01-31T23:00:09.705Z,92.70
2023-01-31T23:04:27.313Z,92.66
2023-01-31T23:08:45.556Z,92.56
2023-01-31T23:13:03.444Z,92.55
2023-01-31T23:17:39.164Z,92.58
2023-01-31T23:21:56.739Z,92.59
2023-01-31T23:26:14.454Z,92.58
2023-01-31T23:30:32.306Z,92.58
2023-01-31T23:34:50.409Z,92.57
2023-01-31T23:39:09.410Z,92.58
2023-01-31T23:43:26.998Z,92.59
2023-01-31T23:47:44.935Z,92.65
2023-01-31T23:52:02.842Z,92.69
2023-01-31T23:56:20.583Z,92.71
